createdAt,value
2023-01-27T00:01:14.773Z,68.10
2023-01-27T00:03:41.287Z,68.37
2023-01-27T00:06:11.903Z,68.54
2023-01-27T00:08:38.467Z,68.20
2023-01-27T00:11:23.661Z,68.29
2023-01-27T00:13:50.292Z,68.54
2023-01-27T00:16:16.831Z,68.35
2023-01-27T00:18:43.436Z,68.63
2023-01-27T00:21:28.811Z,68.85
2023-01-27T00:24:13.712Z,69.09
2023-01-27T00:26:40.262Z,69.11
2023-01-27T00:29:06.729Z,69.00
2023-01-27T00:31:51.649Z,68.69
2023-01-27T00:34:18.022Z,68.73
2023-01-27T00:36:44.662Z,68.72
2023-01-27T00:39:12.082Z,68.56
2023-01-27T00:41:39.996Z,67.66
2023-01-27T00:44:07.228Z,68.13
2023-01-27T00:46:34.415Z,68.41
2023-01-27T00:49:00.936Z,68.12
2023-01-27T00:51:27.401Z,68.88
2023-01-27T00:53:53.783Z,68.73
2023-01-27T00:56:20.371Z,68.43
2023-01-27T00:58:46.808Z,68.51
2023-01-27T01:01:16.825Z,69.45
2023-01-27T01:03:44.054Z,68.84
2023-01-27T01:06:12.522Z,68.80
2023-01-27T01:08:39.427Z,68.44
2023-01-27T01:11:07.496Z,68.94
2023-01-27T01:13:34.746Z,68.81
2023-01-27T01:16:09.869Z,69.12
2023-01-27T01:18:36.391Z,69.10
2023-01-27T01:21:02.848Z,68.84
2023-01-27T01:23:29.346Z,69.47
2023-01-27T01:25:57.513Z,68.98
2023-01-27T01:28:25.005Z,69.50
2023-01-27T01:30:51.773Z,69.68
2023-01-27T01:33:18.332Z,70.14
2023-01-27T01:35:44.940Z,70.26
2023-01-27T01:38:11.755Z,69.14
2023-01-27T01:40:43.318Z,69.65
2023-01-27T01:43:16.192Z,69.77
2023-01-27T01:45:47.436Z,69.77
2023-01-27T01:48:31.958Z,69.74
2023-01-27T01:51:11.210Z,69.82
2023-01-27T01:53:51.878Z,70.10
2023-01-27T01:56:24.037Z,69.72
2023-01-27T01:58:51.204Z,69.55
2023-01-27T02:01:19.343Z,70.03
2023-01-27T02:03:51.245Z,69.57
2023-01-27T02:06:17.806Z,69.71
2023-01-27T02:08:46.239Z,69.28
2023-01-27T02:11:12.689Z,69.21
2023-01-27T02:13:40.534Z,69.37
2023-01-27T02:16:08.305Z,69.96
2023-01-27T02:18:35.018Z,69.45
2023-01-27T02:21:01.790Z,69.21
2023-01-27T02:23:40.034Z,69.50
2023-01-27T02:26:32.437Z,70.02
2023-01-27T02:29:02.351Z,69.17
2023-01-27T02:31:29.127Z,69.91
2023-01-27T02:34:01.572Z,69.67
2023-01-27T02:36:32.595Z,69.87
2023-01-27T02:39:01.567Z,69.76
2023-01-27T02:41:35.078Z,69.32
2023-01-27T02:44:01.882Z,69.27
2023-01-27T02:46:28.507Z,68.91
2023-01-27T02:48:55.081Z,69.61
2023-01-27T02:51:21.653Z,69.39
2023-01-27T02:53:48.181Z,68.92
2023-01-27T02:56:14.605Z,69.29
2023-01-27T02:58:41.175Z,69.09
2023-01-27T03:01:08.414Z,69.09
2023-01-27T03:03:34.959Z,68.82
2023-01-27T03:06:01.613Z,68.93
2023-01-27T03:08:28.068Z,69.19
2023-01-27T03:10:55.877Z,68.74
2023-01-27T03:13:26.112Z,69.23
2023-01-27T03:16:13.462Z,69.49
2023-01-27T03:18:40.988Z,69.68
2023-01-27T03:21:07.438Z,69.36
2023-01-27T03:23:34.466Z,69.27
2023-01-27T03:26:02.473Z,69.42
2023-01-27T03:28:28.905Z,69.70
2023-01-27T03:31:03.415Z,69.57
2023-01-27T03:33:30.238Z,69.07
2023-01-27T03:36:15.774Z,69.36
2023-01-27T03:39:00.795Z,68.98
2023-01-27T03:41:46.039Z,68.56
2023-01-27T03:44:30.997Z,68.49
2023-01-27T03:46:57.386Z,68.50
2023-01-27T03:49:23.937Z,69.08
2023-01-27T03:51:50.401Z,69.17
2023-01-27T03:54:16.904Z,68.53
2023-01-27T03:56:43.267Z,69.00
2023-01-27T03:59:09.830Z,68.38
2023-01-27T04:01:36.434Z,68.92
2023-01-27T04:04:21.303Z,68.70
2023-01-27T04:06:54.383Z,68.04
2023-01-27T04:09:27.053Z,68.81
2023-01-27T04:11:55.291Z,69.21
2023-01-27T04:14:33.443Z,69.00
2023-01-27T04:17:07.479Z,69.54
2023-01-27T04:19:34.202Z,69.21
2023-01-27T04:22:01.478Z,69.40
2023-01-27T04:24:28.332Z,69.13
2023-01-27T04:26:58.909Z,68.98
2023-01-27T04:29:28.902Z,69.13
2023-01-27T04:31:57.865Z,68.72
2023-01-27T04:34:25.838Z,68.90
2023-01-27T04:36:52.467Z,68.59
2023-01-27T04:39:19.189Z,69.06
2023-01-27T04:41:46.425Z,68.52
2023-01-27T04:44:13.235Z,68.71
2023-01-27T04:46:39.961Z,68.54
2023-01-27T04:49:06.910Z,68.31
2023-01-27T04:51:34.008Z,68.28
2023-01-27T04:54:00.999Z,68.41
2023-01-27T04:56:30.492Z,68.83
2023-01-27T04:59:06.173Z,68.56
2023-01-27T05:01:33.315Z,68.76
2023-01-27T05:04:00.100Z,68.69
2023-01-27T05:06:26.948Z,69.24
2023-01-27T05:08:54.957Z,68.35
2023-01-27T05:11:22.041Z,68.34
2023-01-27T05:13:48.663Z,67.99
2023-01-27T05:16:21.076Z,68.43
2023-01-27T05:18:49.561Z,68.10
2023-01-27T05:21:18.874Z,68.40
2023-01-27T05:23:45.520Z,67.68
2023-01-27T05:26:20.408Z,67.90
2023-01-27T05:28:48.648Z,68.37
2023-01-27T05:31:21.208Z,68.08
2023-01-27T05:33:50.984Z,67.77
2023-01-27T05:36:20.667Z,67.92
2023-01-27T05:38:47.160Z,67.18
2023-01-27T05:41:15.271Z,66.96
2023-01-27T05:43:43.613Z,67.33
2023-01-27T05:46:13.340Z,67.39
2023-01-27T05:48:42.835Z,67.40
2023-01-27T05:51:09.828Z,67.38
2023-01-27T05:53:36.578Z,67.34
2023-01-27T05:56:04.053Z,67.91
2023-01-27T05:58:31.261Z,67.87
2023-01-27T06:01:19.585Z,68.29
2023-01-27T06:03:47.025Z,68.47
2023-01-27T06:06:15.269Z,68.07
2023-01-27T06:08:42.190Z,68.44
2023-01-27T06:11:08.989Z,68.09
2023-01-27T06:13:35.913Z,68.26
2023-01-27T06:16:03.799Z,68.19
2023-01-27T06:18:30.324Z,67.57
2023-01-27T06:21:01.669Z,67.88
2023-01-27T06:23:28.741Z,67.99
2023-01-27T06:25:56.362Z,67.93
2023-01-27T06:28:29.109Z,67.94
2023-01-27T06:30:57.274Z,67.29
2023-01-27T06:33:23.821Z,67.53
2023-01-27T06:35:50.438Z,67.40
2023-01-27T06:38:17.189Z,67.20
2023-01-27T06:40:44.216Z,67.24
2023-01-27T06:43:13.798Z,66.92
2023-01-27T06:45:40.750Z,66.59
2023-01-27T06:48:08.665Z,67.41
2023-01-27T06:50:36.884Z,67.37
2023-01-27T06:53:07.148Z,67.59
2023-01-27T06:55:35.088Z,67.69
2023-01-27T06:58:02.528Z,67.33
2023-01-27T07:00:29.447Z,67.34
2023-01-27T07:02:56.538Z,67.56
2023-01-27T07:05:23.447Z,66.82
2023-01-27T07:07:49.861Z,66.21
2023-01-27T07:10:16.736Z,66.20
2023-01-27T07:12:43.414Z,67.18
2023-01-27T07:15:11.178Z,67.74
2023-01-27T07:17:37.813Z,67.64
2023-01-27T07:20:06.493Z,66.47
2023-01-27T07:22:32.954Z,66.53
2023-01-27T07:24:59.432Z,66.97
2023-01-27T07:27:26.067Z,66.46
2023-01-27T07:29:52.558Z,66.78
2023-01-27T07:32:19.211Z,67.22
2023-01-27T07:34:45.631Z,67.22
2023-01-27T07:37:13.166Z,67.39
2023-01-27T07:39:39.699Z,66.78
2023-01-27T07:42:07.040Z,67.09
2023-01-27T07:44:33.654Z,67.89
2023-01-27T07:47:00.164Z,67.49
2023-01-27T07:49:27.634Z,67.33
2023-01-27T07:51:54.303Z,66.95
2023-01-27T07:54:21.093Z,67.19
2023-01-27T07:56:47.533Z,66.98
2023-01-27T07:59:14.297Z,66.26
2023-01-27T08:01:41.830Z,66.23
2023-01-27T08:04:08.950Z,65.93
2023-01-27T08:06:38.101Z,65.60
2023-01-27T08:09:04.578Z,65.47
2023-01-27T08:11:31.023Z,65.58
2023-01-27T08:13:57.597Z,65.55
2023-01-27T08:16:24.028Z,65.79
2023-01-27T08:18:52.798Z,65.74
2023-01-27T08:21:19.911Z,65.46
2023-01-27T08:23:46.803Z,65.25
2023-01-27T08:26:13.777Z,64.99
2023-01-27T08:28:40.806Z,65.51
2023-01-27T08:31:14.029Z,65.28
2023-01-27T08:33:41.859Z,65.31
2023-01-27T08:36:14.845Z,64.87
2023-01-27T08:38:43.489Z,64.46
2023-01-27T08:41:15.393Z,64.91
2023-01-27T08:43:42.008Z,64.08
2023-01-27T08:46:09.347Z,64.52
2023-01-27T08:48:37.599Z,63.86
2023-01-27T08:51:05.378Z,62.38
2023-01-27T08:53:32.621Z,63.56
2023-01-27T08:56:04.265Z,62.96
2023-01-27T08:58:30.784Z,63.72
2023-01-27T09:01:01.304Z,63.80
2023-01-27T09:03:28.759Z,64.12
2023-01-27T09:05:55.282Z,64.16
2023-01-27T09:08:21.893Z,63.90
2023-01-27T09:10:48.363Z,63.52
2023-01-27T09:13:16.924Z,64.21
2023-01-27T09:15:43.869Z,63.47
2023-01-27T09:18:10.719Z,64.58
2023-01-27T09:20:37.528Z,63.67
2023-01-27T09:23:05.009Z,63.06
2023-01-27T09:25:31.805Z,62.24
2023-01-27T09:28:00.260Z,63.47
2023-01-27T09:30:27.925Z,63.65
2023-01-27T09:32:58.460Z,62.68
2023-01-27T09:35:26.359Z,63.33
2023-01-27T09:37:56.596Z,62.22
2023-01-27T09:40:32.283Z,61.92
2023-01-27T09:43:22.919Z,62.18
2023-01-27T09:46:08.713Z,62.29
2023-01-27T09:48:45.539Z,62.85
2023-01-27T09:51:59.311Z,62.23
2023-01-27T09:55:00.596Z,61.92
2023-01-27T09:57:54.098Z,62.14
2023-01-27T10:00:32.589Z,61.72
2023-01-27T10:03:18.932Z,62.90
2023-01-27T10:06:13.281Z,60.96
2023-01-27T10:09:35.730Z,62.03
2023-01-27T10:12:14.234Z,62.57
2023-01-27T10:15:05.680Z,62.52
2023-01-27T10:18:04.881Z,61.43
2023-01-27T10:20:47.052Z,62.48
2023-01-27T10:23:44.653Z,63.45
2023-01-27T10:26:24.495Z,62.12
2023-01-27T10:28:55.588Z,62.05
2023-01-27T10:31:29.341Z,61.94
2023-01-27T10:34:03.268Z,62.02
2023-01-27T10:36:39.644Z,62.42
2023-01-27T10:39:44.131Z,62.33
2023-01-27T10:42:34.323Z,61.75
2023-01-27T10:45:24.601Z,61.57
2023-01-27T10:48:12.255Z,63.09
2023-01-27T10:50:55.845Z,61.14
2023-01-27T10:53:29.072Z,60.92
2023-01-27T10:56:07.154Z,60.96
2023-01-27T10:58:47.230Z,60.99
2023-01-27T11:01:21.729Z,61.37
2023-01-27T11:03:57.526Z,61.09
2023-01-27T11:06:27.965Z,60.29
2023-01-27T11:09:05.671Z,60.88
2023-01-27T11:11:44.249Z,60.76
2023-01-27T11:14:32.551Z,60.14
2023-01-27T11:17:17.418Z,60.22
2023-01-27T11:20:21.200Z,60.74
2023-01-27T11:23:17.460Z,60.58
2023-01-27T11:25:56.653Z,61.18
2023-01-27T11:28:34.963Z,61.74
2023-01-27T11:31:32.290Z,62.18
2023-01-27T11:34:19.247Z,61.62
2023-01-27T11:36:47.269Z,62.20
2023-01-27T11:39:15.632Z,61.63
2023-01-27T11:41:47.582Z,61.72
2023-01-27T11:44:24.777Z,61.92
2023-01-27T11:46:52.462Z,60.98
2023-01-27T11:49:23.325Z,61.23
2023-01-27T11:51:49.796Z,60.66
2023-01-27T11:54:21.799Z,61.65
2023-01-27T11:56:50.213Z,61.44
2023-01-27T11:59:27.251Z,60.47
2023-01-27T12:02:15.243Z,59.31
2023-01-27T12:04:49.152Z,59.47
2023-01-27T12:07:27.191Z,59.75
2023-01-27T12:09:53.658Z,60.04
2023-01-27T12:12:26.801Z,61.27
2023-01-27T12:14:57.975Z,61.75
2023-01-27T12:17:38.689Z,61.67
2023-01-27T12:20:33.744Z,60.77
2023-01-27T12:23:24.671Z,61.53
2023-01-27T12:25:55.045Z,60.60
2023-01-27T12:28:24.298Z,61.06
2023-01-27T12:30:52.593Z,60.78
2023-01-27T12:33:32.511Z,59.85
2023-01-27T12:36:01.301Z,59.70
2023-01-27T12:38:33.195Z,59.74
2023-01-27T12:41:03.518Z,59.90
2023-01-27T12:43:30.138Z,59.83
2023-01-27T12:46:08.777Z,60.23
2023-01-27T12:48:46.626Z,60.16
2023-01-27T12:51:36.179Z,59.80
2023-01-27T12:54:35.524Z,60.85
2023-01-27T12:57:05.545Z,60.15
2023-01-27T12:59:33.308Z,60.33
2023-01-27T13:02:01.253Z,60.17
2023-01-27T13:04:29.060Z,60.26
2023-01-27T13:07:05.246Z,60.48
2023-01-27T13:10:03.505Z,60.48
2023-01-27T13:12:49.786Z,60.65
2023-01-27T13:15:19.292Z,59.73
2023-01-27T13:17:48.419Z,60.98
2023-01-27T13:20:29.850Z,60.30
2023-01-27T13:23:05.288Z,60.44
2023-01-27T13:25:50.285Z,61.33
2023-01-27T13:28:23.020Z,60.20
2023-01-27T13:30:54.269Z,60.35
2023-01-27T13:33:45.308Z,60.46
2023-01-27T13:36:15.215Z,60.63
2023-01-27T13:38:46.703Z,59.96
2023-01-27T13:41:22.558Z,60.08
2023-01-27T13:44:03.074Z,59.55
2023-01-27T13:46:36.823Z,58.92
2023-01-27T13:49:32.400Z,58.90
2023-01-27T13:51:58.926Z,59.18
2023-01-27T13:54:25.516Z,58.93
2023-01-27T13:57:06.511Z,58.50
2023-01-27T13:59:51.552Z,59.80
2023-01-27T14:02:30.192Z,59.75
2023-01-27T14:05:22.051Z,60.45
2023-01-27T14:08:13.279Z,60.32
2023-01-27T14:11:09.917Z,60.85
2023-01-27T14:13:55.044Z,61.39
2023-01-27T14:16:30.466Z,61.55
2023-01-27T14:19:02.826Z,61.11
2023-01-27T14:21:42.664Z,60.68
2023-01-27T14:24:37.983Z,60.88
2023-01-27T14:27:07.659Z,60.21
2023-01-27T14:29:43.138Z,60.12
2023-01-27T14:32:22.115Z,60.79
2023-01-27T14:35:13.456Z,61.15
2023-01-27T14:38:00.344Z,61.39
2023-01-27T14:40:37.987Z,61.01
2023-01-27T14:43:18.349Z,60.25
2023-01-27T14:46:19.103Z,60.75
2023-01-27T14:49:23.253Z,61.15
2023-01-27T14:51:55.046Z,61.92
2023-01-27T14:54:51.846Z,61.15
2023-01-27T14:57:32.903Z,60.99
2023-01-27T15:00:17.774Z,60.83
2023-01-27T15:02:51.976Z,61.46
2023-01-27T15:05:39.718Z,61.36
2023-01-27T15:08:30.387Z,61.66
2023-01-27T15:11:29.535Z,61.96
2023-01-27T15:14:12.405Z,61.92
2023-01-27T15:17:15.940Z,63.04
2023-01-27T15:19:56.756Z,62.61
2023-01-27T15:22:37.583Z,62.59
2023-01-27T15:25:13.361Z,63.16
2023-01-27T15:27:40.988Z,63.77
2023-01-27T15:30:20.546Z,63.37
2023-01-27T15:32:47.147Z,62.80
2023-01-27T15:35:26.413Z,62.61
2023-01-27T15:37:57.851Z,63.56
2023-01-27T15:40:25.420Z,63.65
2023-01-27T15:42:57.804Z,63.26
2023-01-27T15:45:36.776Z,63.34
2023-01-27T15:48:11.918Z,63.52
2023-01-27T15:50:46.236Z,62.81
2023-01-27T15:53:44.732Z,63.25
2023-01-27T15:56:11.904Z,64.13
2023-01-27T15:58:41.978Z,63.97
2023-01-27T16:01:11.720Z,63.41
2023-01-27T16:03:48.039Z,63.48
2023-01-27T16:06:17.497Z,63.83
2023-01-27T16:08:55.917Z,63.30
2023-01-27T16:11:28.404Z,63.74
2023-01-27T16:14:13.666Z,63.77
2023-01-27T16:16:44.901Z,63.79
2023-01-27T16:19:11.666Z,64.00
2023-01-27T16:21:49.514Z,64.23
2023-01-27T16:24:56.186Z,64.77
2023-01-27T16:27:42.753Z,64.69
2023-01-27T16:30:16.008Z,64.45
2023-01-27T16:33:07.859Z,64.71
2023-01-27T16:35:49.231Z,64.87
2023-01-27T16:38:21.703Z,64.76
2023-01-27T16:40:52.733Z,64.51
2023-01-27T16:43:29.994Z,65.04
2023-01-27T16:45:57.801Z,64.45
2023-01-27T16:48:41.782Z,64.40
2023-01-27T16:51:28.844Z,64.49
2023-01-27T16:53:59.154Z,63.49
2023-01-27T16:56:32.632Z,64.01
2023-01-27T16:59:05.040Z,63.13
2023-01-27T17:01:40.108Z,63.43
2023-01-27T17:04:19.435Z,63.00
2023-01-27T17:06:47.687Z,63.51
2023-01-27T17:09:31.914Z,63.08
2023-01-27T17:11:59.429Z,63.45
2023-01-27T17:14:38.416Z,63.91
2023-01-27T17:17:17.151Z,63.74
2023-01-27T17:19:47.578Z,63.27
2023-01-27T17:22:39.370Z,63.53
2023-01-27T17:25:15.688Z,63.31
2023-01-27T17:27:44.640Z,63.02
2023-01-27T17:30:25.218Z,62.98
2023-01-27T17:32:54.817Z,62.65
2023-01-27T17:35:25.352Z,63.29
2023-01-27T17:37:52.397Z,63.16
2023-01-27T17:40:21.496Z,63.02
2023-01-27T17:42:49.401Z,63.29
2023-01-27T17:45:22.576Z,63.88
2023-01-27T17:47:49.942Z,63.41
2023-01-27T17:50:19.146Z,63.55
2023-01-27T17:52:52.394Z,62.94
2023-01-27T17:55:25.581Z,63.96
2023-01-27T17:58:02.753Z,63.34
2023-01-27T18:00:38.069Z,62.31
2023-01-27T18:03:18.106Z,63.28
2023-01-27T18:05:46.196Z,62.24
2023-01-27T18:08:12.685Z,63.11
2023-01-27T18:10:45.765Z,62.49
2023-01-27T18:13:18.386Z,63.52
2023-01-27T18:15:58.399Z,63.13
2023-01-27T18:18:27.745Z,63.67
2023-01-27T18:20:57.300Z,62.84
2023-01-27T18:23:27.983Z,63.52
2023-01-27T18:26:16.335Z,63.04
2023-01-27T18:28:43.380Z,63.25
2023-01-27T18:31:18.441Z,63.06
2023-01-27T18:33:46.406Z,63.17
2023-01-27T18:36:22.292Z,63.07
2023-01-27T18:38:50.897Z,63.77
2023-01-27T18:41:29.076Z,63.75
2023-01-27T18:43:56.322Z,64.37
2023-01-27T18:46:22.863Z,64.05
2023-01-27T18:48:49.509Z,63.50
2023-01-27T18:51:16.980Z,63.10
2023-01-27T18:53:43.706Z,63.42
2023-01-27T18:56:11.168Z,64.05
2023-01-27T18:58:38.530Z,63.71
2023-01-27T19:01:21.079Z,62.84
2023-01-27T19:03:47.788Z,63.32
2023-01-27T19:06:16.688Z,62.99
2023-01-27T19:08:43.973Z,62.78
2023-01-27T19:11:15.120Z,63.02
2023-01-27T19:13:45.873Z,62.45
2023-01-27T19:16:16.153Z,62.43
2023-01-27T19:18:43.221Z,62.38
2023-01-27T19:21:12.776Z,62.88
2023-01-27T19:23:39.489Z,62.60
2023-01-27T19:26:14.362Z,63.28
2023-01-27T19:28:40.881Z,63.63
2023-01-27T19:31:07.843Z,63.55
2023-01-27T19:33:37.083Z,63.45
2023-01-27T19:36:16.843Z,63.31
2023-01-27T19:38:43.287Z,63.23
2023-01-27T19:41:10.954Z,63.86
2023-01-27T19:43:37.441Z,63.86
2023-01-27T19:46:13.405Z,63.71
2023-01-27T19:48:40.031Z,63.94
2023-01-27T19:51:06.523Z,63.16
2023-01-27T19:53:33.015Z,63.60
2023-01-27T19:55:59.663Z,63.75
2023-01-27T19:58:28.117Z,63.38
2023-01-27T20:00:55.277Z,63.41
2023-01-27T20:03:23.222Z,63.17
2023-01-27T20:05:49.941Z,63.19
2023-01-27T20:08:18.679Z,63.30
2023-01-27T20:10:45.694Z,63.27
2023-01-27T20:13:17.757Z,63.27
2023-01-27T20:15:45.131Z,62.70
2023-01-27T20:18:15.230Z,62.52
2023-01-27T20:20:42.563Z,63.11
2023-01-27T20:23:09.345Z,62.61
2023-01-27T20:25:35.774Z,63.13
2023-01-27T20:28:02.194Z,63.84
2023-01-27T20:30:34.340Z,63.25
2023-01-27T20:33:02.827Z,63.49
2023-01-27T20:35:29.649Z,63.44
2023-01-27T20:37:56.354Z,62.98
2023-01-27T20:40:25.631Z,63.61
2023-01-27T20:42:52.764Z,63.24
2023-01-27T20:45:19.945Z,63.86
2023-01-27T20:47:51.153Z,63.69
2023-01-27T20:50:18.382Z,64.04
2023-01-27T20:52:45.236Z,63.58
2023-01-27T20:55:13.729Z,64.04
2023-01-27T20:57:40.384Z,64.21
2023-01-27T21:00:08.137Z,63.98
2023-01-27T21:02:34.899Z,63.70
2023-01-27T21:05:01.313Z,63.93
2023-01-27T21:07:27.854Z,63.70
2023-01-27T21:09:55.050Z,63.75
2023-01-27T21:12:21.601Z,63.84
2023-01-27T21:14:48.199Z,64.12
2023-01-27T21:17:14.855Z,63.58
2023-01-27T21:19:41.604Z,63.64
2023-01-27T21:22:08.134Z,62.94
2023-01-27T21:24:35.496Z,63.84
2023-01-27T21:27:01.866Z,63.43
2023-01-27T21:29:28.360Z,63.40
2023-01-27T21:31:54.926Z,63.70
2023-01-27T21:34:21.776Z,63.51
2023-01-27T21:36:48.661Z,63.82
2023-01-27T21:39:15.023Z,64.24
2023-01-27T21:41:53.617Z,64.18
2023-01-27T21:44:41.431Z,63.33
2023-01-27T21:47:10.533Z,64.39
2023-01-27T21:49:58.026Z,64.23
2023-01-27T21:52:37.454Z,64.06
2023-01-27T21:55:09.644Z,63.26
2023-01-27T21:57:36.249Z,63.43
2023-01-27T22:00:05.310Z,63.83
2023-01-27T22:02:32.209Z,63.24
2023-01-27T22:04:58.713Z,63.18
2023-01-27T22:07:27.002Z,63.35
2023-01-27T22:09:53.483Z,63.57
2023-01-27T22:12:21.826Z,63.24
2023-01-27T22:14:48.263Z,63.42
2023-01-27T22:17:15.478Z,63.59
2023-01-27T22:19:41.950Z,62.93
2023-01-27T22:22:12.078Z,63.39
2023-01-27T22:24:38.757Z,62.40
2023-01-27T22:27:05.571Z,63.33
2023-01-27T22:29:32.034Z,63.99
2023-01-27T22:31:58.467Z,63.20
2023-01-27T22:34:25.124Z,64.17
2023-01-27T22:36:51.969Z,63.69
2023-01-27T22:39:18.715Z,63.74
2023-01-27T22:41:45.963Z,62.70
2023-01-27T22:44:14.216Z,62.93
2023-01-27T22:46:41.729Z,62.81
2023-01-27T22:49:08.923Z,62.73
2023-01-27T22:51:35.639Z,63.73
2023-01-27T22:54:02.065Z,63.48
2023-01-27T22:56:29.240Z,63.17
2023-01-27T22:58:55.699Z,63.69
2023-01-27T23:01:22.398Z,62.97
2023-01-27T23:03:48.894Z,62.77
2023-01-27T23:06:15.907Z,63.23
2023-01-27T23:08:42.361Z,62.84
2023-01-27T23:11:08.797Z,62.49
2023-01-27T23:13:35.671Z,62.37
2023-01-27T23:16:02.408Z,63.54
2023-01-27T23:18:28.872Z,63.48
2023-01-27T23:20:55.376Z,63.06
2023-01-27T23:23:23.135Z,62.90
2023-01-27T23:25:49.601Z,63.19
2023-01-27T23:28:19.875Z,62.73
2023-01-27T23:30:48.647Z,63.62
2023-01-27T23:33:16.835Z,63.69
2023-01-27T23:35:43.610Z,63.42
2023-01-27T23:38:22.641Z,63.49
2023-01-27T23:41:04.666Z,63.87
2023-01-27T23:43:31.287Z,63.82
2023-01-27T23:45:58.317Z,63.70
2023-01-27T23:48:25.408Z,64.10
2023-01-27T23:50:51.852Z,64.26
2023-01-27T23:53:18.467Z,63.79
2023-01-27T23:55:44.915Z,63.98
2023-01-27T23:58:11.357Z,64.07
